Austerlitz, New York
Current Conditions -  °F | °C
As of 1:54 PM on Thursday 27 Nov 2014 (Local Time) from KPSF Reporting Station
Overcast Overcast  
Wind Chill: 24°   Ceiling: 1900
Heat Index: 29°   Visibility: 10mi
Dew Point: 23°   Wind: 5mph
Humidity: 78%   Direction: 10°N
Pressure: 29.91"   Gusts: NA
Location:  42.31°N, 73.47°W
Report Text: KPSF 271854Z AUTO 01004KT 10SM BKN019 OVC070 M02/M05 A2991 RMK AO2 SLP142 T10171050 $
Loading
Personal Weather Stations






























Interactive Weather Map New forecast layout! Learn more

10-Day Weather Forecast

Advertisements
Track Severe Weather on mobile